Mc Intosh, Alabama
Current Conditions -  °F | °C
As of 1:56 PM on Wednesday 26 Nov 2014 (Local Time) from KMOB Reporting Station
Clear Clear  
Wind Chill: 63°   Ceiling: Unl
Heat Index: 63°   Visibility: 10mi
Dew Point: 29°   Wind: 8mph
Humidity: 28%   Direction: 240°WSW
Pressure: 30.18"   Gusts: NA
Location:  31.2336°N, 88.0662°W
Report Text: KMOB 261956Z 24007KT 10SM CLR 17/M02 A3018 RMK AO2 SLP218 T01721017
Loading
Personal Weather Stations






























Interactive Weather Map New forecast layout! Learn more

10-Day Weather Forecast

Advertisements
Track Severe Weather on mobile